| time (UTC) | temp C | wind direction | speed KPH | gust KPH | rain 1hr cm | rain 24hr cm | rain mn cm | humidity % | barometer mb |
| 20260906101004 | 22 | 298 | 6.4 | 20.9 | 0.00 | 0.00 | 0.00 | 91 | 1012.8 |
| 20260906100504 | 22 | 333 | 4.8 | 12.9 | 0.00 | 0.00 | 0.00 | 92 | 1012.6 |
| 20260906100004 | 22 | 8 | 4.8 | 11.3 | 0.00 | 0.00 | 0.00 | 92 | 1012.5 |
| 20260906095504 | 22 | 29 | 4.8 | 12.9 | 0.00 | 0.00 | 0.00 | 92 | 1012.7 |
| 20260906095004 | 22 | 24 | 4.8 | 11.3 | 0.00 | 0.00 | 0.00 | 92 | 1012.7 |
| 20260906094504 | 22 | 314 | 4.8 | 12.9 | 0.00 | 0.00 | 0.00 | 92 | 1012.6 |
| 20260906094004 | 23 | 328 | 4.8 | 11.3 | 0.00 | 0.00 | 0.00 | 92 | 1012.4 |
| 20260906093504 | 23 | 288 | 4.8 | 14.5 | 0.00 | 0.00 | 0.00 | 92 | 1012.5 |
| 20260906093004 | 23 | 265 | 3.2 | 12.9 | 0.00 | 0.00 | 0.00 | 93 | 1012.3 |
| 20260906092504 | 23 | 257 | 3.2 | 11.3 | 0.00 | 0.00 | 0.00 | 93 | 1012.2 |
| 20260906092004 | 22 | 333 | 3.2 | 9.7 | 0.00 | 0.00 | 0.00 | 93 | 1012.1 |
| 20260906091504 | 22 | 306 | 3.2 | 9.7 | 0.00 | 0.00 | 0.00 | 93 | 1012.0 |
| 20260906090504 | 23 | 344 | 3.2 | 8.0 | 0.00 | 0.00 | 0.00 | 93 | 1011.8 |
| 20260906090004 | 22 | 281 | 3.2 | 8.0 | 0.00 | 0.00 | 0.00 | 92 | 1011.7 |
| 20260906085503 | 22 | 283 | 3.2 | 8.0 | 0.00 | 0.00 | 0.00 | 93 | 1011.6 |
| 20260906085004 | 22 | 353 | 3.2 | 4.8 | 0.00 | 0.00 | 0.00 | 93 | 1011.8 |
| 20260906084504 | 22 | 321 | 1.6 | 4.8 | 0.00 | 0.00 | 0.00 | 93 | 1011.7 |
| 20260906084003 | 22 | 286 | 1.6 | 8.0 | 0.00 | 0.00 | 0.00 | 93 | 1011.7 |
| 20260906083504 | 23 | 317 | 3.2 | 8.0 | 0.00 | 0.00 | 0.00 | 93 | 1011.7 |
| 20260906083004 | 23 | 296 | 1.6 | 8.0 | 0.00 | 0.00 | 0.00 | 93 | 1011.7 |
| 20260906082505 | 23 | 296 | 3.2 | 8.0 | 0.00 | 0.00 | 0.00 | 93 | 1011.7 |
| 20260906082004 | 23 | 300 | 3.2 | 4.8 | 0.00 | 0.00 | 0.00 | 93 | 1011.7 |
| 20260906081504 | 23 | 283 | 3.2 | 4.8 | 0.00 | 0.00 | 0.00 | 93 | 1011.6 |
| 20260906081004 | 23 | 281 | 1.6 | 4.8 | 0.00 | 0.00 | 0.00 | 93 | 1011.5 |
| 20260906080004 | 23 | 341 | 1.6 | 9.7 | 0.00 | 0.00 | 0.00 | 92 | 1011.8 |
| 20260906075504 | 23 | 266 | 3.2 | 9.7 | 0.00 | 0.00 | 0.00 | 92 | 1011.8 |
| 20260906075004 | 23 | 297 | 4.8 | 11.3 | 0.00 | 0.00 | 0.00 | 92 | 1011.9 |
| 20260906074503 | 23 | 284 | 3.2 | 9.7 | 0.00 | 0.00 | 0.00 | 93 | 1011.9 |
| 20260906074004 | 23 | 251 | 3.2 | 12.9 | 0.00 | 0.00 | 0.00 | 93 | 1012.0 |
| 20260906073504 | 24 | 259 | 4.8 | 12.9 | 0.00 | 0.00 | 0.00 | 92 | 1012.2 |
| 20260906073004 | 25 | 295 | 8.0 | 16.1 | 0.00 | 0.00 | 0.00 | 92 | 1012.1 |
| 20260906072503 | 25 | 290 | 6.4 | 16.1 | 0.00 | 0.00 | 0.00 | 92 | 1011.8 |
| 20260906071504 | 25 | 290 | 3.2 | 8.0 | 0.00 | 0.00 | 0.00 | 93 | 1011.6 |
| 20260906071004 | 25 | 275 | 4.8 | 8.0 | 0.00 | 0.00 | 0.00 | 93 | 1011.5 |
| 20260906070504 | 25 | 6 | 0.0 | 1.6 | 0.00 | 0.00 | 0.00 | 93 | 1011.5 |
| 20260906070004 | 25 | 304 | 1.6 | 8.0 | 0.00 | 0.00 | 0.00 | 93 | 1011.5 |
| 20260906065503 | 25 | 54 | 1.6 | 9.7 | 0.00 | 0.00 | 0.00 | 93 | 1011.5 |
| 20260906065003 | 25 | 101 | 4.8 | 9.7 | 0.00 | 0.00 | 0.00 | 93 | 1011.4 |
| 20260906064504 | 25 | 77 | 4.8 | 8.0 | 0.00 | 0.00 | 0.00 | 94 | 1011.0 |
| 20260906064003 | 25 | 303 | 1.6 | 3.2 | 0.00 | 0.00 | 0.00 | 94 | 1010.8 |
| 20260906063504 | 25 | 16 | 0.0 | 3.2 | 0.00 | 0.00 | 0.00 | 94 | 1010.8 |
| 20260906063005 | 25 | 285 | 1.6 | 4.8 | 0.00 | 0.00 | 0.00 | 94 | 1010.7 |
| 20260906063003 | 25 | 286 | 1.6 | 4.8 | 0.00 | 0.00 | 0.00 | 94 | 1010.7 |
| 20260906062504 | 25 | 335 | 1.6 | 3.2 | 0.00 | 0.00 | 0.00 | 94 | 1010.7 |
| 20260906062004 | 25 | 249 | 1.6 | 3.2 | 0.00 | 0.00 | 0.00 | 94 | 1010.7 |
| 20260906061504 | 25 | 56 | 1.6 | 3.2 | 0.00 | 0.00 | 0.00 | 94 | 1010.8 |
| 20260906061004 | 25 | 46 | 0.0 | 3.2 | 0.00 | 0.00 | 0.00 | 94 | 1010.9 |
| 20260906060504 | 25 | 292 | 1.6 | 4.8 | 0.00 | 0.00 | 0.00 | 94 | 1011.0 |
| 20260906060004 | 25 | 286 | 3.2 | 3.2 | 0.00 | 0.00 | 0.00 | 94 | 1011.1 |
| 20260906055503 | 25 | 270 | 1.6 | 4.8 | 0.00 | 0.00 | 0.00 | 94 | 1011.0 |
| 20260906054504 | 24 | 295 | 0.0 | 3.2 | 0.00 | 0.00 | 0.00 | 94 | 1011.2 |
| 20260906054004 | 24 | 337 | 1.6 | 3.2 | 0.00 | 0.00 | 0.00 | 94 | 1011.3 |
| 20260906053504 | 24 | 26 | 1.6 | 3.2 | 0.00 | 0.00 | 0.00 | 94 | 1011.4 |
| 20260906053004 | 24 | 304 | 1.6 | 4.8 | 0.00 | 0.00 | 0.00 | 94 | 1011.5 |
| 20260906052504 | 24 | 21 | 1.6 | 4.8 | 0.00 | 0.00 | 0.00 | 94 | 1011.7 |
| 20260906052004 | 24 | 17 | 1.6 | 3.2 | 0.00 | 0.00 | 0.00 | 94 | 1011.8 |
| 20260906051504 | 24 | 321 | 1.6 | 3.2 | 0.00 | 0.00 | 0.00 | 93 | 1012.0 |
| 20260906051004 | 24 | 49 | 1.6 | 3.2 | 0.00 | 0.00 | 0.00 | 93 | 1012.1 |
| 20260906050504 | 24 | 300 | 1.6 | 3.2 | 0.00 | 0.00 | 0.00 | 93 | 1012.1 |
| 20260906050004 | 24 | 279 | 1.6 | 3.2 | 0.00 | 0.00 | 0.00 | 93 | 1012.3 |
| 20260906045503 | 24 | 285 | 1.6 | 3.2 | 0.00 | 0.00 | 0.00 | 93 | 1012.2 |
| 20260906045004 | 24 | 37 | 1.6 | 3.2 | 0.00 | 0.00 | 0.00 | 93 | 1012.3 |
| 20260906044004 | 24 | 284 | 3.2 | 3.2 | 0.00 | 0.00 | 0.00 | 92 | 1012.3 |
| 20260906043504 | 24 | 80 | 0.0 | 3.2 | 0.00 | 0.00 | 0.00 | 92 | 1012.4 |
| 20260906043004 | 24 | 42 | 1.6 | 3.2 | 0.00 | 0.00 | 0.00 | 92 | 1012.5 |
| 20260906042503 | 24 | 340 | 1.6 | 3.2 | 0.00 | 0.00 | 0.00 | 91 | 1012.6 |
| 20260906042004 | 24 | 345 | 1.6 | 3.2 | 0.00 | 0.00 | 0.00 | 90 | 1012.8 |
| 20260906041503 | 24 | 102 | 1.6 | 4.8 | 0.00 | 0.00 | 0.00 | 90 | 1012.8 |
| 20260906041004 | 25 | 347 | 1.6 | 4.8 | 0.00 | 0.00 | 0.00 | 89 | 1013.3 |
| 20260906040504 | 25 | 80 | 3.2 | 8.0 | 0.00 | 0.00 | 0.00 | 87 | 1013.7 |
| 20260906040004 | 25 | 301 | 1.6 | 8.0 | 0.00 | 0.00 | 0.00 | 86 | 1014.0 |
| 20260906035504 | 26 | 263 | 1.6 | 4.8 | 0.00 | 0.00 | 0.00 | 86 | 1013.8 |
| 20260906035004 | 26 | 256 | 6.4 | 16.1 | 0.00 | 0.00 | 0.00 | 85 | 1014.2 |
| 20260906034505 | 27 | 277 | 4.8 | 14.5 | 0.00 | 0.00 | 0.00 | 88 | 1014.0 |
| 20260906034004 | 27 | 97 | 4.8 | 14.5 | 0.00 | 0.00 | 0.00 | 83 | 1015.1 |
| 20260906033504 | 27 | 126 | 4.8 | 14.5 | 0.00 | 0.00 | 0.00 | 83 | 1015.1 |
| 20260906033003 | 27 | 57 | 8.0 | 14.5 | 0.00 | 0.00 | 0.00 | 83 | 1015.0 |
| 20260906032503 | 27 | 121 | 4.8 | 8.0 | 0.00 | 0.00 | 0.00 | 81 | 1015.0 |
| 20260906032003 | 27 | 98 | 1.6 | 4.8 | 0.00 | 0.00 | 0.00 | 81 | 1014.7 |
| 20260906031504 | 27 | 82 | 1.6 | 3.2 | 0.00 | 0.00 | 0.00 | 81 | 1014.7 |
| 20260906031004 | 27 | 116 | 1.6 | 3.2 | 0.00 | 0.00 | 0.00 | 81 | 1014.6 |
| 20260906030504 | 27 | 307 | 3.2 | 4.8 | 0.00 | 0.00 | 0.00 | 81 | 1014.6 |
| 20260906030003 | 27 | 9 | 1.6 | 4.8 | 0.00 | 0.00 | 0.00 | 82 | 1014.5 |
| 20260906025503 | 28 | 353 | 1.6 | 3.2 | 0.00 | 0.00 | 0.00 | 82 | 1014.4 |
| 20260906025004 | 28 | 323 | 3.2 | 3.2 | 0.00 | 0.00 | 0.00 | 81 | 1014.4 |
| 20260906024503 | 28 | 290 | 0.0 | 3.2 | 0.00 | 0.00 | 0.00 | 81 | 1014.3 |
| 20260906024004 | 28 | 98 | 0.0 | 3.2 | 0.00 | 0.00 | 0.00 | 81 | 1014.4 |
| 20260906023003 | 28 | 345 | 1.6 | 4.8 | 0.00 | 0.00 | 0.00 | 80 | 1014.4 |
| 20260906022503 | 28 | 299 | 1.6 | 4.8 | 0.00 | 0.00 | 0.00 | 80 | 1014.5 |
| 20260906022004 | 28 | 303 | 3.2 | 4.8 | 0.00 | 0.00 | 0.00 | 80 | 1014.5 |
| 20260906021504 | 28 | 333 | 1.6 | 4.8 | 0.00 | 0.00 | 0.00 | 79 | 1014.5 |
| 20260906021004 | 28 | 282 | 3.2 | 4.8 | 0.00 | 0.00 | 0.00 | 79 | 1014.5 |
| 20260906020504 | 28 | 296 | 1.6 | 3.2 | 0.00 | 0.00 | 0.00 | 79 | 1014.5 |
| 20260906020004 | 28 | 29 | 1.6 | 3.2 | 0.00 | 0.00 | 0.00 | 78 | 1014.6 |
| 20260906015503 | 28 | 342 | 1.6 | 3.2 | 0.00 | 0.00 | 0.00 | 78 | 1014.6 |
| 20260906015004 | 28 | 278 | 1.6 | 4.8 | 0.00 | 0.00 | 0.00 | 78 | 1014.5 |
| 20260906014503 | 28 | 74 | 1.6 | 4.8 | 0.00 | 0.00 | 0.00 | 78 | 1014.4 |
| 20260906014003 | 28 | 272 | 3.2 | 4.8 | 0.00 | 0.00 | 0.00 | 77 | 1014.3 |
| 20260906013504 | 28 | 295 | 3.2 | 4.8 | 0.00 | 0.00 | 0.00 | 77 | 1014.3 |
| 20260906013004 | 28 | 284 | 3.2 | 8.0 | 0.00 | 0.00 | 0.00 | 76 | 1014.1 |
| 20260906012504 | 29 | 303 | 1.6 | 9.7 | 0.00 | 0.00 | 0.00 | 76 | 1014.1 |
| 20260906012003 | 29 | 290 | 4.8 | 9.7 | 0.00 | 0.00 | 0.00 | 76 | 1014.0 |
| 20260906011504 | 29 | 265 | 3.2 | 9.7 | 0.00 | 0.00 | 0.00 | 75 | 1014.0 |
| 20260906011004 | 29 | 315 | 3.2 | 9.7 | 0.00 | 0.00 | 0.00 | 75 | 1013.9 |
| 20260906010504 | 29 | 124 | 3.2 | 9.7 | 0.00 | 0.00 | 0.00 | 76 | 1013.7 |
| 20260906010004 | 30 | 296 | 3.2 | 9.7 | 0.00 | 0.00 | 0.00 | 76 | 1013.6 |
| 20260906005504 | 30 | 1 | 3.2 | 9.7 | 0.00 | 0.00 | 0.00 | 75 | 1013.7 |
| 20260906005003 | 30 | 72 | 3.2 | 8.0 | 0.00 | 0.00 | 0.00 | 74 | 1013.8 |
| 20260906004504 | 30 | 6 | 3.2 | 8.0 | 0.00 | 0.00 | 0.00 | 73 | 1013.8 |
| 20260906004004 | 30 | 358 | 1.6 | 4.8 | 0.00 | 0.00 | 0.00 | 72 | 1013.9 |
| 20260906003504 | 30 | 47 | 1.6 | 4.8 | 0.00 | 0.00 | 0.00 | 72 | 1013.9 |
| 20260906003004 | 30 | 18 | 3.2 | 8.0 | 0.00 | 0.00 | 0.00 | 71 | 1014.0 |
| 20260906002504 | 31 | 266 | 3.2 | 4.8 | 0.00 | 0.00 | 0.00 | 70 | 1014.0 |
| 20260906002004 | 31 | 307 | 1.6 | 4.8 | 0.00 | 0.00 | 0.00 | 69 | 1013.9 |
| 20260906001503 | 31 | 261 | 3.2 | 8.0 | 0.00 | 0.00 | 0.00 | 68 | 1013.9 |
| 20260906001004 | 31 | 252 | 3.2 | 8.0 | 0.00 | 0.00 | 0.00 | 66 | 1013.9 |
| 20260906000504 | 32 | 249 | 3.2 | 4.8 | 0.00 | 0.00 | 0.00 | 63 | 1014.0 |
| 20260906000003 | 32 | 248 | 3.2 | 4.8 | 0.00 | 0.00 | 0.00 | 60 | 1014.0 |
| 20260905235504 | 32 | 278 | 1.6 | 4.8 | 0.00 | 0.00 | 0.00 | 57 | 1014.0 |
| 20260905235004 | 32 | 329 | 3.2 | 8.0 | 0.00 | 0.00 | 0.00 | 56 | 1014.0 |
| 20260905234504 | 33 | 264 | 3.2 | 8.0 | 0.00 | 0.00 | 0.00 | 55 | 1014.0 |
| 20260905234003 | 33 | 332 | 1.6 | 4.8 | 0.00 | 0.00 | 0.00 | 55 | 1014.0 |
| 20260905233504 | 33 | 288 | 3.2 | 4.8 | 0.00 | 0.00 | 0.00 | 55 | 1014.0 |
| 20260905233004 | 33 | 285 | 3.2 | 8.0 | 0.00 | 0.00 | 0.00 | 55 | 1014.0 |
| 20260905232504 | 33 | 272 | 3.2 | 9.7 | 0.00 | 0.00 | 0.00 | 54 | 1013.9 |
| 20260905232003 | 33 | 284 | 1.6 | 9.7 | 0.00 | 0.00 | 0.00 | 54 | 1014.0 |
| 20260905231504 | 33 | 261 | 3.2 | 8.0 | 0.00 | 0.00 | 0.00 | 53 | 1013.9 |
| 20260905231004 | 34 | 285 | 3.2 | 8.0 | 0.00 | 0.00 | 0.00 | 53 | 1013.9 |
| 20260905230504 | 34 | 257 | 1.6 | 8.0 | 0.00 | 0.00 | 0.00 | 52 | 1013.9 |
| 20260905230004 | 35 | 291 | 4.8 | 9.7 | 0.00 | 0.00 | 0.00 | 51 | 1013.9 |
| 20260905225504 | 35 | 269 | 3.2 | 9.7 | 0.00 | 0.00 | 0.00 | 50 | 1013.9 |
| 20260905225004 | 35 | 288 | 3.2 | 9.7 | 0.00 | 0.00 | 0.00 | 51 | 1013.9 |
| 20260905224504 | 35 | 287 | 1.6 | 9.7 | 0.00 | 0.00 | 0.00 | 51 | 1013.9 |
| 20260905224004 | 35 | 294 | 4.8 | 9.7 | 0.00 | 0.00 | 0.00 | 50 | 1013.9 |
| 20260905223004 | 36 | 280 | 3.2 | 8.0 | 0.00 | 0.00 | 0.00 | 50 | 1013.8 |
| 20260905222504 | 35 | 100 | 1.6 | 4.8 | 0.00 | 0.00 | 0.00 | 49 | 1013.7 |
| 20260905222004 | 35 | 61 | 1.6 | 4.8 | 0.00 | 0.00 | 0.00 | 50 | 1013.7 |
| 20260905221504 | 35 | 108 | 1.6 | 4.8 | 0.00 | 0.00 | 0.00 | 50 | 1013.7 |
| 20260905221003 | 35 | 114 | 1.6 | 4.8 | 0.00 | 0.00 | 0.00 | 51 | 1013.8 |
| 20260905220504 | 35 | 149 | 1.6 | 4.8 | 0.00 | 0.00 | 0.00 | 51 | 1013.8 |
| 20260905220004 | 35 | 129 | 1.6 | 4.8 | 0.00 | 0.00 | 0.00 | 51 | 1013.8 |
| 20260905215504 | 35 | 116 | 3.2 | 9.7 | 0.00 | 0.00 | 0.00 | 51 | 1013.8 |
| 20260905215004 | 35 | 138 | 3.2 | 9.7 | 0.00 | 0.00 | 0.00 | 50 | 1013.8 |
| 20260905214504 | 35 | 129 | 3.2 | 11.3 | 0.00 | 0.00 | 0.00 | 50 | 1013.8 |
| 20260905214004 | 35 | 295 | 4.8 | 12.9 | 0.00 | 0.00 | 0.00 | 50 | 1013.7 |
| 20260905213504 | 36 | 95 | 4.8 | 12.9 | 0.00 | 0.00 | 0.00 | 48 | 1013.8 |
| 20260905213004 | 36 | 291 | 6.4 | 11.3 | 0.00 | 0.00 | 0.00 | 46 | 1013.7 |
| 20260905212503 | 36 | 300 | 4.8 | 11.3 | 0.00 | 0.00 | 0.00 | 46 | 1013.7 |
| 20260905212004 | 36 | 21 | 1.6 | 9.7 | 0.00 | 0.00 | 0.00 | 46 | 1013.8 |
| 20260905211504 | 36 | 63 | 4.8 | 9.7 | 0.00 | 0.00 | 0.00 | 47 | 1013.9 |
| 20260905211004 | 36 | 290 | 3.2 | 8.0 | 0.00 | 0.00 | 0.00 | 44 | 1013.8 |
| 20260905210504 | 35 | 352 | 4.8 | 9.7 | 0.00 | 0.00 | 0.00 | 46 | 1013.9 |
| 20260905210004 | 35 | 64 | 4.8 | 9.7 | 0.00 | 0.00 | 0.00 | 48 | 1013.9 |
| 20260905205504 | 35 | 137 | 3.2 | 9.7 | 0.00 | 0.00 | 0.00 | 47 | 1013.9 |
| 20260905205004 | 35 | 119 | 3.2 | 9.7 | 0.00 | 0.00 | 0.00 | 48 | 1014.0 |
| 20260905204504 | 35 | 77 | 3.2 | 12.9 | 0.00 | 0.00 | 0.00 | 49 | 1014.1 |
| 20260905204004 | 36 | 51 | 6.4 | 12.9 | 0.00 | 0.00 | 0.00 | 49 | 1014.0 |
| 20260905203504 | 36 | 59 | 4.8 | 9.7 | 0.00 | 0.00 | 0.00 | 46 | 1014.0 |
| 20260905203004 | 36 | 73 | 6.4 | 12.9 | 0.00 | 0.00 | 0.00 | 47 | 1014.1 |
| 20260905202503 | 36 | 61 | 1.6 | 12.9 | 0.00 | 0.00 | 0.00 | 46 | 1014.0 |
| 20260905202004 | 36 | 255 | 6.4 | 14.5 | 0.00 | 0.00 | 0.00 | 47 | 1014.1 |
| 20260905201503 | 36 | 278 | 8.0 | 14.5 | 0.00 | 0.00 | 0.00 | 46 | 1014.1 |
| 20260905201004 | 36 | 102 | 4.8 | 12.9 | 0.00 | 0.00 | 0.00 | 47 | 1014.1 |
| 20260905200504 | 36 | 65 | 8.0 | 11.3 | 0.00 | 0.00 | 0.00 | 45 | 1014.1 |
| 20260905200004 | 36 | 30 | 1.6 | 12.9 | 0.00 | 0.00 | 0.00 | 45 | 1014.2 |
| 20260905195504 | 36 | 138 | 3.2 | 12.9 | 0.00 | 0.00 | 0.00 | 46 | 1014.3 |
| 20260905195004 | 36 | 94 | 4.8 | 12.9 | 0.00 | 0.00 | 0.00 | 47 | 1014.4 |
| 20260905194503 | 36 | 68 | 3.2 | 11.3 | 0.00 | 0.00 | 0.00 | 46 | 1014.4 |
| 20260905194004 | 36 | 78 | 3.2 | 9.7 | 0.00 | 0.00 | 0.00 | 46 | 1014.5 |
| 20260905193504 | 36 | 84 | 4.8 | 11.3 | 0.00 | 0.00 | 0.00 | 46 | 1014.5 |
| 20260905193004 | 35 | 126 | 4.8 | 11.3 | 0.00 | 0.00 | 0.00 | 47 | 1014.6 |
| 20260905192504 | 35 | 44 | 3.2 | 12.9 | 0.00 | 0.00 | 0.00 | 47 | 1014.6 |
| 20260905192004 | 35 | 278 | 4.8 | 14.5 | 0.00 | 0.00 | 0.00 | 50 | 1014.7 |
| 20260905191505 | 35 | 52 | 4.8 | 14.5 | 0.00 | 0.00 | 0.00 | 49 | 1014.8 |
| 20260905191004 | 35 | 266 | 4.8 | 11.3 | 0.00 | 0.00 | 0.00 | 49 | 1014.8 |
| 20260905190504 | 35 | 280 | 4.8 | 9.7 | 0.00 | 0.00 | 0.00 | 50 | 1014.9 |
| 20260905190004 | 35 | 287 | 4.8 | 9.7 | 0.00 | 0.00 | 0.00 | 51 | 1015.0 |
| 20260905185504 | 35 | 30 | 4.8 | 8.0 | 0.00 | 0.00 | 0.00 | 50 | 1015.1 |
| 20260905185004 | 35 | 46 | 6.4 | 14.5 | 0.00 | 0.00 | 0.00 | 50 | 1015.1 |
| 20260905184504 | 35 | 67 | 3.2 | 9.7 | 0.00 | 0.00 | 0.00 | 50 | 1015.2 |
| 20260905184004 | 36 | 225 | 3.2 | 8.0 | 0.00 | 0.00 | 0.00 | 50 | 1015.2 |
| 20260905183504 | 36 | 78 | 3.2 | 8.0 | 0.00 | 0.00 | 0.00 | 50 | 1015.3 |
| 20260905183004 | 35 | 93 | 1.6 | 8.0 | 0.00 | 0.00 | 0.00 | 50 | 1015.4 |
| 20260905182504 | 35 | 274 | 6.4 | 11.3 | 0.00 | 0.00 | 0.00 | 52 | 1015.4 |
| 20260905182004 | 35 | 279 | 6.4 | 12.9 | 0.00 | 0.00 | 0.00 | 51 | 1015.5 |
| 20260905181504 | 35 | 261 | 6.4 | 12.9 | 0.00 | 0.00 | 0.00 | 51 | 1015.6 |
| 20260905181004 | 35 | 351 | 3.2 | 11.3 | 0.00 | 0.00 | 0.00 | 50 | 1015.6 |
| 20260905180504 | 35 | 99 | 4.8 | 11.3 | 0.00 | 0.00 | 0.00 | 49 | 1015.7 |
| 20260905180004 | 35 | 107 | 4.8 | 11.3 | 0.00 | 0.00 | 0.00 | 52 | 1015.9 |
| 20260905175504 | 35 | 220 | 4.8 | 11.3 | 0.00 | 0.00 | 0.00 | 53 | 1016.0 |
| 20260905175004 | 35 | 67 | 3.2 | 9.7 | 0.00 | 0.00 | 0.00 | 52 | 1016.0 |
| 20260905174504 | 35 | 154 | 6.4 | 12.9 | 0.00 | 0.00 | 0.00 | 52 | 1016.0 |
| 20260905174004 | 35 | 102 | 6.4 | 12.9 | 0.00 | 0.00 | 0.00 | 52 | 1016.0 |
| 20260905173504 | 35 | 151 | 3.2 | 9.7 | 0.00 | 0.00 | 0.00 | 50 | 1016.1 |
| 20260905173004 | 34 | 114 | 3.2 | 9.7 | 0.00 | 0.00 | 0.00 | 51 | 1016.1 |
| 20260905172504 | 33 | 129 | 3.2 | 9.7 | 0.00 | 0.00 | 0.00 | 52 | 1016.1 |
| 20260905172004 | 33 | 60 | 8.0 | 12.9 | 0.00 | 0.00 | 0.00 | 53 | 1016.2 |
| 20260905171004 | 33 | 60 | 3.2 | 9.7 | 0.00 | 0.00 | 0.00 | 56 | 1016.3 |
| 20260905170504 | 33 | 64 | 4.8 | 9.7 | 0.00 | 0.00 | 0.00 | 56 | 1016.4 |
| 20260905170003 | 32 | 63 | 4.8 | 11.3 | 0.00 | 0.00 | 0.00 | 57 | 1016.5 |
| 20260905165504 | 32 | 217 | 3.2 | 9.7 | 0.00 | 0.00 | 0.00 | 58 | 1016.6 |
| 20260905165004 | 32 | 46 | 1.6 | 12.9 | 0.00 | 0.00 | 0.00 | 58 | 1016.6 |
| 20260905164504 | 33 | 140 | 4.8 | 12.9 | 0.00 | 0.00 | 0.00 | 58 | 1016.6 |
| 20260905164004 | 33 | 257 | 3.2 | 12.9 | 0.00 | 0.00 | 0.00 | 58 | 1016.6 |
| 20260905163503 | 33 | 44 | 4.8 | 12.9 | 0.00 | 0.00 | 0.00 | 56 | 1016.7 |
| 20260905163004 | 33 | 357 | 3.2 | 9.7 | 0.00 | 0.00 | 0.00 | 56 | 1016.7 |
| 20260905162504 | 33 | 69 | 3.2 | 9.7 | 0.00 | 0.00 | 0.00 | 57 | 1016.7 |
| 20260905162004 | 33 | 68 | 6.4 | 14.5 | 0.00 | 0.00 | 0.00 | 58 | 1016.8 |
| 20260905161504 | 32 | 264 | 8.0 | 14.5 | 0.00 | 0.00 | 0.00 | 59 | 1016.8 |
| 20260905161004 | 33 | 289 | 4.8 | 14.5 | 0.00 | 0.00 | 0.00 | 58 | 1016.7 |
| 20260905160504 | 32 | 254 | 4.8 | 14.5 | 0.00 | 0.00 | 0.00 | 59 | 1016.7 |
| 20260905160004 | 32 | 85 | 8.0 | 14.5 | 0.00 | 0.00 | 0.00 | 60 | 1016.8 |
| 20260905155505 | 32 | 66 | 4.8 | 12.9 | 0.00 | 0.00 | 0.00 | 60 | 1016.8 |
| 20260905155003 | 32 | 255 | 8.0 | 14.5 | 0.00 | 0.00 | 0.00 | 59 | 1016.8 |
| 20260905154504 | 32 | 7 | 4.8 | 11.3 | 0.00 | 0.00 | 0.00 | 60 | 1016.8 |
| 20260905153504 | 32 | 334 | 4.8 | 11.3 | 0.00 | 0.00 | 0.00 | 60 | 1016.8 |
| 20260905153003 | 32 | 276 | 8.0 | 11.3 | 0.00 | 0.00 | 0.00 | 62 | 1016.8 |
| 20260905152504 | 32 | 275 | 8.0 | 14.5 | 0.00 | 0.00 | 0.00 | 62 | 1016.8 |
| 20260905152004 | 32 | 298 | 3.2 | 9.7 | 0.00 | 0.00 | 0.00 | 60 | 1016.8 |
| 20260905151004 | 32 | 338 | 3.2 | 9.7 | 0.00 | 0.00 | 0.00 | 62 | 1016.9 |
| 20260905150504 | 31 | 42 | 3.2 | 8.0 | 0.00 | 0.00 | 0.00 | 62 | 1016.9 |
| 20260905150004 | 31 | 292 | 3.2 | 8.0 | 0.00 | 0.00 | 0.00 | 64 | 1016.9 |
| 20260905145504 | 31 | 332 | 4.8 | 11.3 | 0.00 | 0.00 | 0.00 | 64 | 1016.9 |
| 20260905145004 | 31 | 47 | 4.8 | 9.7 | 0.00 | 0.00 | 0.00 | 64 | 1016.9 |
| 20260905144504 | 31 | 51 | 4.8 | 9.7 | 0.00 | 0.00 | 0.00 | 64 | 1016.9 |
| 20260905144004 | 31 | 19 | 4.8 | 9.7 | 0.00 | 0.00 | 0.00 | 65 | 1016.9 |
| 20260905143504 | 31 | 84 | 3.2 | 9.7 | 0.00 | 0.00 | 0.00 | 65 | 1016.9 |
| 20260905143004 | 30 | 63 | 3.2 | 11.3 | 0.00 | 0.00 | 0.00 | 66 | 1016.9 |
| 20260905142504 | 30 | 67 | 4.8 | 11.3 | 0.00 | 0.00 | 0.00 | 66 | 1016.9 |
| 20260905142004 | 30 | 279 | 3.2 | 8.0 | 0.00 | 0.00 | 0.00 | 66 | 1016.9 |
| 20260905141504 | 30 | 14 | 3.2 | 8.0 | 0.00 | 0.00 | 0.00 | 68 | 1016.9 |
| 20260905141004 | 29 | 274 | 4.8 | 12.9 | 0.00 | 0.00 | 0.00 | 70 | 1016.9 |
| 20260905140003 | 29 | 249 | 8.0 | 12.9 | 0.00 | 0.00 | 0.00 | 71 | 1017.0 |
| 20260905135503 | 28 | 277 | 3.2 | 11.3 | 0.00 | 0.00 | 0.00 | 71 | 1017.0 |
| 20260905135004 | 28 | 260 | 4.8 | 11.3 | 0.00 | 0.00 | 0.00 | 72 | 1016.9 |
| 20260905134504 | 28 | 264 | 4.8 | 9.7 | 0.00 | 0.00 | 0.00 | 72 | 1016.9 |
| 20260905134004 | 28 | 306 | 1.6 | 9.7 | 0.00 | 0.00 | 0.00 | 74 | 1016.9 |
| 20260905133504 | 28 | 262 | 3.2 | 8.0 | 0.00 | 0.00 | 0.00 | 74 | 1016.9 |
| 20260905133003 | 28 | 66 | 3.2 | 8.0 | 0.00 | 0.00 | 0.00 | 74 | 1016.9 |
| 20260905132504 | 28 | 27 | 3.2 | 8.0 | 0.00 | 0.00 | 0.00 | 75 | 1016.9 |
| 20260905132003 | 27 | 60 | 1.6 | 8.0 | 0.00 | 0.00 | 0.00 | 76 | 1016.9 |
| 20260905131504 | 27 | 313 | 3.2 | 8.0 | 0.00 | 0.00 | 0.00 | 78 | 1016.8 |
| 20260905131004 | 27 | 271 | 3.2 | 8.0 | 0.00 | 0.00 | 0.00 | 78 | 1016.8 |
| 20260905130504 | 27 | 259 | 1.6 | 4.8 | 0.00 | 0.00 | 0.00 | 78 | 1016.8 |
| 20260905130003 | 27 | 253 | 6.4 | 12.9 | 0.00 | 0.00 | 0.00 | 79 | 1016.7 |
| 20260905125503 | 27 | 303 | 1.6 | 4.8 | 0.00 | 0.00 | 0.00 | 78 | 1016.7 |
| 20260905125004 | 27 | 2 | 1.6 | 3.2 | 0.00 | 0.00 | 0.00 | 79 | 1016.6 |
| 20260905124504 | 26 | 352 | 1.6 | 4.8 | 0.00 | 0.00 | 0.00 | 80 | 1016.5 |
| 20260905124004 | 26 | 342 | 1.6 | 4.8 | 0.00 | 0.00 | 0.00 | 81 | 1016.4 |
| 20260905123504 | 26 | 277 | 1.6 | 4.8 | 0.00 | 0.00 | 0.00 | 83 | 1016.2 |
| 20260905123004 | 25 | 323 | 1.6 | 3.2 | 0.00 | 0.00 | 0.00 | 84 | 1015.9 |
| 20260905122503 | 25 | 220 | 1.6 | 3.2 | 0.00 | 0.00 | 0.00 | 85 | 1015.9 |
| 20260905122004 | 25 | 303 | 0.0 | 3.2 | 0.00 | 0.00 | 0.00 | 85 | 1015.6 |
| 20260905121504 | 24 | 286 | 3.2 | 3.2 | 0.00 | 0.00 | 0.00 | 86 | 1015.5 |
| 20260905121004 | 24 | 305 | 1.6 | 4.8 | 0.00 | 0.00 | 0.00 | 87 | 1015.3 |
| 20260905120504 | 23 | 286 | 3.2 | 4.8 | 0.00 | 0.00 | 0.00 | 88 | 1015.1 |
| 20260905120004 | 23 | 285 | 1.6 | 3.2 | 0.00 | 0.00 | 0.00 | 88 | 1014.9 |
| 20260905115503 | 23 | 287 | 1.6 | 3.2 | 0.00 | 0.00 | 0.00 | 88 | 1014.8 |
| 20260905114504 | 23 | 266 | 1.6 | 3.2 | 0.00 | 0.00 | 0.00 | 89 | 1014.8 |
| 20260905114004 | 23 | 41 | 1.6 | 3.2 | 0.00 | 0.00 | 0.00 | 88 | 1014.8 |
| 20260905113504 | 23 | 246 | 1.6 | 3.2 | 0.00 | 0.00 | 0.00 | 88 | 1014.8 |
| 20260905113004 | 23 | 349 | 1.6 | 3.2 | 0.00 | 0.00 | 0.00 | 88 | 1014.8 |
| 20260905112503 | 23 | 295 | 1.6 | 4.8 | 0.00 | 0.00 | 0.00 | 89 | 1014.7 |
| 20260905112005 | 23 | 286 | 1.6 | 3.2 | 0.00 | 0.00 | 0.00 | 88 | 1014.6 |
| 20260905111504 | 23 | 287 | 1.6 | 3.2 | 0.00 | 0.00 | 0.00 | 88 | 1014.6 |
| 20260905111005 | 23 | 240 | 1.6 | 3.2 | 0.00 | 0.00 | 0.00 | 88 | 1014.7 |
| 20260905110504 | 23 | 274 | 1.6 | 3.2 | 0.00 | 0.00 | 0.00 | 88 | 1014.7 |
| 20260905110004 | 23 | 269 | 1.6 | 3.2 | 0.00 | 0.00 | 0.00 | 88 | 1014.7 |
| 20260905105504 | 23 | 289 | 1.6 | 3.2 | 0.00 | 0.00 | 0.00 | 88 | 1014.8 |
| 20260905105004 | 23 | 284 | 3.2 | 3.2 | 0.00 | 0.00 | 0.00 | 88 | 1014.8 |
| 20260905104504 | 23 | 283 | 1.6 | 3.2 | 0.00 | 0.00 | 0.00 | 88 | 1014.8 |
| 20260905104003 | 23 | 261 | 3.2 | 3.2 | 0.00 | 0.00 | 0.00 | 87 | 1014.8 |
| 20260905103504 | 24 | 293 | 1.6 | 3.2 | 0.00 | 0.00 | 0.00 | 87 | 1014.9 |
| 20260905103004 | 24 | 69 | 1.6 | 3.2 | 0.00 | 0.00 | 0.00 | 87 | 1014.9 |
| 20260905102504 | 24 | 274 | 1.6 | 3.2 | 0.00 | 0.00 | 0.00 | 87 | 1014.9 |
| 20260905102004 | 24 | 299 | 1.6 | 4.8 | 0.00 | 0.00 | 0.00 | 87 | 1014.9 |
| 20260905101505 | 24 | 287 | 3.2 | 4.8 | 0.00 | 0.00 | 0.00 | 87 | 1014.8 |